Lochwinnoch, United Kingdom
Current Conditions -  °F | °C
As of 2:20 AM on Sunday 23 Nov 2014 (Local Time) from EGPF Reporting Station
Scattered Clouds Scattered Clouds  
Wind Chill: 39°   Ceiling: Unl
Heat Index: 39°   Visibility: 6mi
Dew Point: 39°   Wind: 3mph
Humidity: 100%   Direction: 270°W
Pressure: 29.97"   Gusts: NA
Location:  55.8°N, 4.63°W
Report Text: EGPF 230220Z AUTO 27003KT 9999 FEW032 SCT042 04/04 Q1015
Loading
Personal Weather Stations






























Interactive Weather Map New forecast layout! Learn more

10-Day Weather Forecast

Advertisements
Track Severe Weather on mobile